createdAt,value
2022-09-30T00:01:44.072Z,52.74
2022-09-30T00:04:16.383Z,52.81
2022-09-30T00:06:47.642Z,52.44
2022-09-30T00:09:16.611Z,52.63
2022-09-30T00:11:46.981Z,52.71
2022-09-30T00:14:21.218Z,52.88
2022-09-30T00:16:50.405Z,52.85
2022-09-30T00:19:18.491Z,52.91
2022-09-30T00:21:48.132Z,53.01
2022-09-30T00:24:16.173Z,52.83
2022-09-30T00:26:44.166Z,52.85
2022-09-30T00:29:12.497Z,52.76
2022-09-30T00:31:40.890Z,52.88
2022-09-30T00:34:10.350Z,53.01
2022-09-30T00:36:43.677Z,53.12
2022-09-30T00:39:16.255Z,53.64
2022-09-30T00:41:45.252Z,53.16
2022-09-30T00:44:48.014Z,53.14
2022-09-30T00:47:48.356Z,53.22
2022-09-30T00:50:35.080Z,53.24
2022-09-30T00:53:13.501Z,53.25
2022-09-30T00:55:49.218Z,52.93
2022-09-30T00:58:25.732Z,53.21
2022-09-30T01:00:53.905Z,53.21
2022-09-30T01:03:23.333Z,53.18
2022-09-30T01:05:52.527Z,53.20
2022-09-30T01:08:22.294Z,53.30
2022-09-30T01:10:51.824Z,53.08
2022-09-30T01:13:22.684Z,53.12
2022-09-30T01:16:06.931Z,53.34
2022-09-30T01:18:50.115Z,53.48
2022-09-30T01:22:05.158Z,53.20
2022-09-30T01:24:57.527Z,53.62
2022-09-30T01:27:48.615Z,53.60
2022-09-30T01:30:21.944Z,53.58
2022-09-30T01:33:19.746Z,53.31
2022-09-30T01:36:06.441Z,53.58
2022-09-30T01:38:44.497Z,53.54
2022-09-30T01:41:22.362Z,53.55
2022-09-30T01:44:03.147Z,53.71
2022-09-30T01:46:37.300Z,53.70
2022-09-30T01:49:17.159Z,53.72
2022-09-30T01:51:53.574Z,53.28
2022-09-30T01:54:28.123Z,53.35
2022-09-30T01:57:02.120Z,53.26
2022-09-30T01:59:37.515Z,53.38
2022-09-30T02:02:11.478Z,53.55
2022-09-30T02:04:45.677Z,53.45
2022-09-30T02:07:17.389Z,53.67
2022-09-30T02:09:52.081Z,53.79
2022-09-30T02:12:22.634Z,53.71
2022-09-30T02:14:54.557Z,53.50
2022-09-30T02:17:27.221Z,53.57
2022-09-30T02:20:01.130Z,53.78
2022-09-30T02:22:40.773Z,53.66
2022-09-30T02:25:12.690Z,53.81
2022-09-30T02:27:46.863Z,53.66
2022-09-30T02:30:15.947Z,53.92
2022-09-30T02:32:51.087Z,53.73
2022-09-30T02:35:26.936Z,53.94
2022-09-30T02:38:00.744Z,53.56
2022-09-30T02:40:36.009Z,53.37
2022-09-30T02:43:10.659Z,53.63
2022-09-30T02:45:47.694Z,53.87
2022-09-30T02:48:25.528Z,53.74
2022-09-30T02:51:01.659Z,53.71
2022-09-30T02:53:35.318Z,53.82
2022-09-30T02:56:17.866Z,54.05
2022-09-30T02:58:47.154Z,53.71
2022-09-30T03:01:17.432Z,53.75
2022-09-30T03:03:49.250Z,53.47
2022-09-30T03:06:19.858Z,53.82
2022-09-30T03:08:48.509Z,53.81
2022-09-30T03:11:19.632Z,53.80
2022-09-30T03:14:29.346Z,54.03
2022-09-30T03:17:14.489Z,54.11
2022-09-30T03:19:59.791Z,54.13
2022-09-30T03:22:53.157Z,54.10
2022-09-30T03:25:31.774Z,54.01
2022-09-30T03:28:11.831Z,54.29
2022-09-30T03:30:54.236Z,54.19
2022-09-30T03:33:26.598Z,54.21
2022-09-30T03:36:02.056Z,54.37
2022-09-30T03:38:41.344Z,54.11
2022-09-30T03:41:18.362Z,53.94
2022-09-30T03:43:50.885Z,54.08
2022-09-30T03:46:25.962Z,53.56
2022-09-30T03:48:58.255Z,53.90
2022-09-30T03:51:26.578Z,53.97
2022-09-30T03:53:56.441Z,54.02
2022-09-30T03:56:28.584Z,54.06
2022-09-30T03:58:58.664Z,54.01
2022-09-30T04:01:26.716Z,54.20
2022-09-30T04:03:55.244Z,54.24
2022-09-30T04:06:25.553Z,54.52
2022-09-30T04:08:54.387Z,54.22
2022-09-30T04:11:23.879Z,54.23
2022-09-30T04:13:52.004Z,54.01
2022-09-30T04:16:20.504Z,53.98
2022-09-30T04:18:48.605Z,53.88
2022-09-30T04:21:17.394Z,54.13
2022-09-30T04:23:45.792Z,54.16
2022-09-30T04:26:15.946Z,54.29
2022-09-30T04:28:45.547Z,54.08
2022-09-30T04:31:15.393Z,54.17
2022-09-30T04:33:44.831Z,54.50
2022-09-30T04:36:13.005Z,54.33
2022-09-30T04:38:41.327Z,54.40
2022-09-30T04:41:18.071Z,54.51
2022-09-30T04:43:48.694Z,54.45
2022-09-30T04:46:19.208Z,54.28
2022-09-30T04:48:48.722Z,54.51
2022-09-30T04:51:18.108Z,54.62
2022-09-30T04:53:47.041Z,54.41
2022-09-30T04:56:16.889Z,54.47
2022-09-30T04:58:45.286Z,54.27
2022-09-30T05:01:16.371Z,54.27
2022-09-30T05:03:44.851Z,54.46
2022-09-30T05:06:13.448Z,54.63
2022-09-30T05:08:46.147Z,54.25
2022-09-30T05:11:17.527Z,54.37
2022-09-30T05:13:46.217Z,54.43
2022-09-30T05:16:16.862Z,54.33
2022-09-30T05:18:47.137Z,54.16
2022-09-30T05:21:17.321Z,54.33
2022-09-30T05:23:45.794Z,54.20
2022-09-30T05:26:14.580Z,54.34
2022-09-30T05:28:43.571Z,54.60
2022-09-30T05:31:12.397Z,54.38
2022-09-30T05:33:42.168Z,54.60
2022-09-30T05:36:13.309Z,54.30
2022-09-30T05:38:41.345Z,54.13
2022-09-30T05:41:11.405Z,53.85
2022-09-30T05:43:40.565Z,54.29
2022-09-30T05:46:09.073Z,54.12
2022-09-30T05:48:37.220Z,54.51
2022-09-30T05:51:07.742Z,54.29
2022-09-30T05:53:38.755Z,54.50
2022-09-30T05:56:07.308Z,54.46
2022-09-30T05:58:35.503Z,54.59
2022-09-30T06:01:13.127Z,54.38
2022-09-30T06:03:42.484Z,54.45
2022-09-30T06:06:11.874Z,54.44
2022-09-30T06:08:40.376Z,54.09
2022-09-30T06:11:12.920Z,54.50
2022-09-30T06:13:42.143Z,54.60
2022-09-30T06:16:11.940Z,54.66
2022-09-30T06:18:41.311Z,54.73
2022-09-30T06:21:13.192Z,54.57
2022-09-30T06:23:41.340Z,54.79
2022-09-30T06:26:13.482Z,54.76
2022-09-30T06:28:43.053Z,54.81
2022-09-30T06:31:11.588Z,54.89
2022-09-30T06:33:39.945Z,54.66
2022-09-30T06:36:07.990Z,54.84
2022-09-30T06:38:39.949Z,54.90
2022-09-30T06:41:08.459Z,55.09
2022-09-30T06:43:44.357Z,54.97
2022-09-30T06:46:22.004Z,55.04
2022-09-30T06:49:07.415Z,54.89
2022-09-30T06:51:39.092Z,54.99
2022-09-30T06:54:09.264Z,54.73
2022-09-30T06:56:37.511Z,54.98
2022-09-30T06:59:05.550Z,54.95
2022-09-30T07:01:33.566Z,54.78
2022-09-30T07:04:08.033Z,54.85
2022-09-30T07:06:36.259Z,54.71
2022-09-30T07:09:04.412Z,54.85
2022-09-30T07:11:34.610Z,54.87
2022-09-30T07:14:04.422Z,54.87
2022-09-30T07:16:33.885Z,55.01
2022-09-30T07:19:03.991Z,54.95
2022-09-30T07:21:32.296Z,55.15
2022-09-30T07:24:00.507Z,54.92
2022-09-30T07:26:29.197Z,55.16
2022-09-30T07:29:00.181Z,55.06
2022-09-30T07:31:34.089Z,54.88
2022-09-30T07:34:03.034Z,54.84
2022-09-30T07:36:33.470Z,54.96
2022-09-30T07:39:07.059Z,54.90
2022-09-30T07:41:37.835Z,54.90
2022-09-30T07:44:12.315Z,54.98
2022-09-30T07:46:40.713Z,54.97
2022-09-30T07:49:13.564Z,54.91
2022-09-30T07:51:45.623Z,54.92
2022-09-30T07:54:16.440Z,55.00
2022-09-30T07:57:08.743Z,55.19
2022-09-30T07:59:37.693Z,55.02
2022-09-30T08:02:06.973Z,54.98
2022-09-30T08:04:36.575Z,54.94
2022-09-30T08:07:07.331Z,55.18
2022-09-30T08:09:35.563Z,55.12
2022-09-30T08:12:05.345Z,55.34
2022-09-30T08:14:34.950Z,55.19
2022-09-30T08:17:02.968Z,55.36
2022-09-30T08:19:33.759Z,55.43
2022-09-30T08:24:31.252Z,55.46
2022-09-30T08:26:59.791Z,56.04
2022-09-30T08:29:54.853Z,55.72
2022-09-30T08:32:17.753Z,55.63
2022-09-30T08:34:46.086Z,55.69
2022-09-30T08:37:14.152Z,55.76
2022-09-30T08:39:43.550Z,55.73
2022-09-30T08:42:45.341Z,55.75
2022-09-30T08:45:23.490Z,55.66
2022-09-30T08:48:02.758Z,55.58
2022-09-30T08:50:42.065Z,55.72
2022-09-30T08:53:17.034Z,55.67
2022-09-30T08:55:47.769Z,55.78
2022-09-30T08:58:23.875Z,55.69
2022-09-30T09:00:56.388Z,55.54
2022-09-30T09:03:29.959Z,55.65
2022-09-30T09:06:06.839Z,55.74
2022-09-30T09:08:56.759Z,55.41
2022-09-30T09:11:48.953Z,55.52
2022-09-30T09:14:30.285Z,55.71
2022-09-30T09:17:15.865Z,55.31
2022-09-30T09:19:54.798Z,55.34
2022-09-30T09:22:25.099Z,55.15
2022-09-30T09:24:54.876Z,55.36
2022-09-30T09:27:27.231Z,55.38
2022-09-30T09:30:06.481Z,55.27
2022-09-30T09:32:36.023Z,55.03
2022-09-30T09:35:16.447Z,55.03
2022-09-30T09:38:14.230Z,54.50
2022-09-30T09:40:57.611Z,54.48
2022-09-30T09:43:34.122Z,54.16
2022-09-30T09:46:11.789Z,54.23
2022-09-30T09:48:39.976Z,53.93
2022-09-30T09:51:19.186Z,53.95
2022-09-30T09:53:51.037Z,54.00
2022-09-30T09:56:21.296Z,53.55
2022-09-30T09:59:15.269Z,53.91
2022-09-30T10:01:46.325Z,53.82
2022-09-30T10:04:22.025Z,53.88
2022-09-30T10:06:54.133Z,53.79
2022-09-30T10:09:33.805Z,53.91
2022-09-30T10:12:28.436Z,54.02
2022-09-30T10:15:03.235Z,53.98
2022-09-30T10:17:33.189Z,54.20
2022-09-30T10:20:06.844Z,54.43
2022-09-30T10:22:37.796Z,54.42
2022-09-30T10:25:25.459Z,54.35
2022-09-30T10:27:56.693Z,54.43
2022-09-30T10:30:33.739Z,54.60
2022-09-30T10:33:04.426Z,54.50
2022-09-30T10:35:32.614Z,54.54
2022-09-30T10:38:02.647Z,54.68
2022-09-30T10:40:32.110Z,54.66
2022-09-30T10:43:00.287Z,54.56
2022-09-30T10:45:34.642Z,54.94
2022-09-30T10:48:07.765Z,55.16
2022-09-30T10:50:36.271Z,54.99
2022-09-30T10:53:16.626Z,54.85
2022-09-30T10:55:46.133Z,54.96
2022-09-30T10:58:25.358Z,55.02
2022-09-30T11:01:01.558Z,54.98
2022-09-30T11:03:35.845Z,55.23
2022-09-30T11:06:05.217Z,54.99
2022-09-30T11:08:40.308Z,55.06
2022-09-30T11:11:14.203Z,55.00
2022-09-30T11:13:50.822Z,55.10
2022-09-30T11:16:26.321Z,55.00
2022-09-30T11:19:02.756Z,54.91
2022-09-30T11:21:37.713Z,55.05
2022-09-30T11:24:20.010Z,54.72
2022-09-30T11:26:58.630Z,54.55
2022-09-30T11:29:45.335Z,54.63
2022-09-30T11:32:24.174Z,54.59
2022-09-30T11:35:04.560Z,54.33
2022-09-30T11:37:58.657Z,54.46
2022-09-30T11:40:36.282Z,54.97
2022-09-30T11:43:15.710Z,54.65
2022-09-30T11:46:08.365Z,54.85
2022-09-30T11:48:47.903Z,55.16
2022-09-30T11:51:24.225Z,55.20
2022-09-30T11:54:04.519Z,55.25
2022-09-30T11:56:54.462Z,55.66
2022-09-30T11:59:27.607Z,55.78
2022-09-30T12:01:59.237Z,55.89
2022-09-30T12:04:32.334Z,55.74
2022-09-30T12:07:06.425Z,55.80
2022-09-30T12:09:38.633Z,55.91
2022-09-30T12:12:16.029Z,56.21
2022-09-30T12:14:48.525Z,56.42
2022-09-30T12:17:27.095Z,56.66
2022-09-30T12:19:58.683Z,56.57
2022-09-30T12:22:31.788Z,56.71
2022-09-30T12:24:59.790Z,56.86
2022-09-30T12:27:39.289Z,56.81
2022-09-30T12:30:17.881Z,56.99
2022-09-30T12:33:22.345Z,57.09
2022-09-30T12:36:18.568Z,57.48
2022-09-30T12:39:29.198Z,57.52
2022-09-30T12:42:46.960Z,57.51
2022-09-30T12:45:56.530Z,57.67
2022-09-30T12:48:33.198Z,57.92
2022-09-30T12:51:02.136Z,58.23
2022-09-30T12:53:33.166Z,58.46
2022-09-30T12:56:07.157Z,58.36
2022-09-30T12:58:38.704Z,58.54
2022-09-30T13:01:12.698Z,58.75
2022-09-30T13:04:16.625Z,58.86
2022-09-30T13:07:13.772Z,59.07
2022-09-30T13:09:58.441Z,59.14
2022-09-30T13:12:29.156Z,59.39
2022-09-30T13:15:34.603Z,59.32
2022-09-30T13:18:29.395Z,59.51
2022-09-30T13:21:18.966Z,59.57
2022-09-30T13:23:48.502Z,59.69
2022-09-30T13:26:46.536Z,59.66
2022-09-30T13:29:38.390Z,59.94
2022-09-30T13:32:07.780Z,60.11
2022-09-30T13:34:50.793Z,60.14
2022-09-30T13:38:07.235Z,60.17
2022-09-30T13:40:57.559Z,60.12
2022-09-30T13:43:28.509Z,60.21
2022-09-30T13:46:00.354Z,60.30
2022-09-30T13:48:33.645Z,60.41
2022-09-30T13:51:08.394Z,60.51
2022-09-30T13:53:41.100Z,60.74
2022-09-30T13:56:15.018Z,60.65
2022-09-30T13:59:14.598Z,60.93
2022-09-30T14:02:00.793Z,60.86
2022-09-30T14:05:01.740Z,60.73
2022-09-30T14:07:43.358Z,60.58
2022-09-30T14:10:35.018Z,60.92
2022-09-30T14:13:32.546Z,61.07
2022-09-30T14:16:28.385Z,61.11
2022-09-30T14:19:22.361Z,61.18
2022-09-30T14:21:56.534Z,61.15
2022-09-30T14:24:31.721Z,61.08
2022-09-30T14:27:29.472Z,61.32
2022-09-30T14:30:06.079Z,61.46
2022-09-30T14:32:40.172Z,61.46
2022-09-30T14:35:10.231Z,61.38
2022-09-30T14:37:42.730Z,61.48
2022-09-30T14:40:13.393Z,61.33
2022-09-30T14:42:45.569Z,61.32
2022-09-30T14:45:20.123Z,61.60
2022-09-30T14:47:52.597Z,61.70
2022-09-30T14:50:24.650Z,61.43
2022-09-30T14:52:58.046Z,61.34
2022-09-30T14:55:30.475Z,61.84
2022-09-30T14:58:22.730Z,61.74
2022-09-30T15:00:59.053Z,61.67
2022-09-30T15:03:28.769Z,61.78
2022-09-30T15:05:58.149Z,61.63
2022-09-30T15:08:26.416Z,62.16
2022-09-30T15:10:56.773Z,61.90
2022-09-30T15:13:31.245Z,62.24
2022-09-30T15:15:59.525Z,62.17
2022-09-30T15:18:30.582Z,62.12
2022-09-30T15:21:00.942Z,62.29
2022-09-30T15:23:32.489Z,62.39
2022-09-30T15:26:01.874Z,62.10
2022-09-30T15:28:31.332Z,62.44
2022-09-30T15:31:00.342Z,62.13
2022-09-30T15:33:31.998Z,62.44
2022-09-30T15:36:04.508Z,62.39
2022-09-30T15:38:34.398Z,62.49
2022-09-30T15:41:05.584Z,62.73
2022-09-30T15:43:39.791Z,63.02
2022-09-30T15:46:23.653Z,62.87
2022-09-30T15:48:51.851Z,62.91
2022-09-30T15:51:30.227Z,62.90
2022-09-30T15:54:00.466Z,63.27
2022-09-30T15:56:35.513Z,63.08
2022-09-30T15:59:07.883Z,63.05
2022-09-30T16:01:38.661Z,63.11
2022-09-30T16:04:11.134Z,63.27
2022-09-30T16:06:46.692Z,63.35
2022-09-30T16:09:24.934Z,63.34
2022-09-30T16:12:03.046Z,63.44
2022-09-30T16:14:34.755Z,63.43
2022-09-30T16:17:06.519Z,63.70
2022-09-30T16:19:37.967Z,63.78
2022-09-30T16:22:06.269Z,63.44
2022-09-30T16:25:02.518Z,63.90
2022-09-30T16:27:32.822Z,63.56
2022-09-30T16:30:03.175Z,63.67
2022-09-30T16:32:40.230Z,63.68
2022-09-30T16:35:17.640Z,63.54
2022-09-30T16:37:45.852Z,63.70
2022-09-30T16:40:20.903Z,63.90
2022-09-30T16:42:49.053Z,63.94
2022-09-30T16:45:19.227Z,64.01
2022-09-30T16:47:47.456Z,63.93
2022-09-30T16:50:29.835Z,63.88
2022-09-30T16:52:57.806Z,63.90
2022-09-30T16:55:26.638Z,63.95
2022-09-30T16:57:57.278Z,63.98
2022-09-30T17:00:28.043Z,64.01
2022-09-30T17:02:56.303Z,64.04
2022-09-30T17:05:25.574Z,64.06
2022-09-30T17:07:56.330Z,64.02
2022-09-30T17:10:28.051Z,64.26
2022-09-30T17:12:56.933Z,64.24
2022-09-30T17:15:26.398Z,64.18
2022-09-30T17:17:54.365Z,64.21
2022-09-30T17:20:22.925Z,64.14
2022-09-30T17:22:51.910Z,64.26
2022-09-30T17:25:20.499Z,64.22
2022-09-30T17:27:50.136Z,64.17
2022-09-30T17:30:18.828Z,64.26
2022-09-30T17:32:48.597Z,64.05
2022-09-30T17:35:16.831Z,64.21
2022-09-30T17:37:47.808Z,64.18
2022-09-30T17:40:33.485Z,63.88
2022-09-30T17:43:11.741Z,64.36
2022-09-30T17:45:41.184Z,64.34
2022-09-30T17:48:11.481Z,64.46
2022-09-30T17:50:44.259Z,64.46
2022-09-30T17:53:14.242Z,64.46
2022-09-30T17:55:43.776Z,64.48
2022-09-30T17:58:12.524Z,64.44
2022-09-30T18:00:40.843Z,64.57
2022-09-30T18:03:10.885Z,64.44
2022-09-30T18:05:39.141Z,64.55
2022-09-30T18:08:07.365Z,64.42
2022-09-30T18:10:37.886Z,64.33
2022-09-30T18:13:06.076Z,64.41
2022-09-30T18:15:34.385Z,64.20
2022-09-30T18:18:02.224Z,64.52
2022-09-30T18:20:31.617Z,64.42
2022-09-30T18:22:59.660Z,64.17
2022-09-30T18:25:27.725Z,64.23
2022-09-30T18:27:58.782Z,64.27
2022-09-30T18:30:27.157Z,64.17
2022-09-30T18:32:56.382Z,64.04
2022-09-30T18:35:25.524Z,64.22
2022-09-30T18:37:55.203Z,64.16
2022-09-30T18:40:25.897Z,64.12
2022-09-30T18:42:56.587Z,64.07
2022-09-30T18:45:24.984Z,64.52
2022-09-30T18:47:56.711Z,64.20
2022-09-30T18:50:25.807Z,63.75
2022-09-30T18:52:57.818Z,64.25
2022-09-30T18:55:26.160Z,63.89
2022-09-30T18:57:55.409Z,64.10
2022-09-30T19:00:23.405Z,63.90
2022-09-30T19:02:53.431Z,63.92
2022-09-30T19:05:22.852Z,64.08
2022-09-30T19:07:50.698Z,63.93
2022-09-30T19:10:20.287Z,63.74
2022-09-30T19:12:48.204Z,63.75
2022-09-30T19:15:17.215Z,63.91
2022-09-30T19:17:45.496Z,63.80
2022-09-30T19:20:17.683Z,63.52
2022-09-30T19:22:46.840Z,63.64
2022-09-30T19:25:16.489Z,63.59
2022-09-30T19:27:46.782Z,63.51
2022-09-30T19:30:16.346Z,63.60
2022-09-30T19:32:44.242Z,63.56
2022-09-30T19:35:14.242Z,63.58
2022-09-30T19:37:54.782Z,63.44
2022-09-30T19:40:28.180Z,63.33
2022-09-30T19:42:57.745Z,63.30
2022-09-30T19:45:27.262Z,63.61
2022-09-30T19:47:55.509Z,63.03
2022-09-30T19:50:23.427Z,63.18
2022-09-30T19:52:57.472Z,63.20
2022-09-30T19:55:26.146Z,63.35
2022-09-30T19:57:54.285Z,63.25
2022-09-30T20:00:24.175Z,63.26
2022-09-30T20:02:52.847Z,62.99
2022-09-30T20:05:21.588Z,62.98
2022-09-30T20:07:51.235Z,63.00
2022-09-30T20:10:19.560Z,62.79
2022-09-30T20:12:47.556Z,62.67
2022-09-30T20:15:33.150Z,62.74
2022-09-30T20:18:02.624Z,62.90
2022-09-30T20:20:37.213Z,62.89
2022-09-30T20:23:05.821Z,62.95
2022-09-30T20:25:35.622Z,63.14
2022-09-30T20:28:05.016Z,62.59
2022-09-30T20:30:33.952Z,62.56
2022-09-30T20:33:03.516Z,62.66
2022-09-30T20:35:31.907Z,62.46
2022-09-30T20:38:00.171Z,62.35
2022-09-30T20:40:28.238Z,62.32
2022-09-30T20:43:02.077Z,61.83
2022-09-30T20:45:30.617Z,62.24
2022-09-30T20:47:59.213Z,61.86
2022-09-30T20:50:38.133Z,61.85
2022-09-30T20:53:09.278Z,61.76
2022-09-30T20:55:39.234Z,61.85
2022-09-30T20:58:09.122Z,61.48
2022-09-30T21:00:39.999Z,61.23
2022-09-30T21:03:10.014Z,61.37
2022-09-30T21:05:40.320Z,61.11
2022-09-30T21:08:08.568Z,61.45
2022-09-30T21:10:38.790Z,60.77
2022-09-30T21:13:11.608Z,60.67
2022-09-30T21:15:40.299Z,60.24
2022-09-30T21:18:09.050Z,60.36
2022-09-30T21:20:37.938Z,60.38
2022-09-30T21:23:07.846Z,60.19
2022-09-30T21:25:36.038Z,59.97
2022-09-30T21:28:04.839Z,59.99
2022-09-30T21:30:32.820Z,60.01
2022-09-30T21:33:00.930Z,59.48
2022-09-30T21:35:28.913Z,59.31
2022-09-30T21:37:56.766Z,59.24
2022-09-30T21:40:28.100Z,59.44
2022-09-30T21:42:56.125Z,59.25
2022-09-30T21:45:25.329Z,58.95
2022-09-30T21:48:02.140Z,58.86
2022-09-30T21:50:32.863Z,58.75
2022-09-30T21:53:00.944Z,58.96
2022-09-30T21:55:31.071Z,59.31
2022-09-30T21:57:59.035Z,58.81
2022-09-30T22:00:27.065Z,58.56
2022-09-30T22:02:55.307Z,58.77
2022-09-30T22:05:23.254Z,58.94
2022-09-30T22:07:51.230Z,58.51
2022-09-30T22:10:19.130Z,58.64
2022-09-30T22:12:50.063Z,58.38
2022-09-30T22:15:18.320Z,58.44
2022-09-30T22:17:46.324Z,57.99
2022-09-30T22:20:14.523Z,58.24
2022-09-30T22:22:42.602Z,57.96
2022-09-30T22:25:10.981Z,57.82
2022-09-30T22:27:39.042Z,57.96
2022-09-30T22:30:10.743Z,57.72
2022-09-30T22:32:38.787Z,57.76
2022-09-30T22:35:25.230Z,57.66
2022-09-30T22:38:10.463Z,57.61
2022-09-30T22:40:38.455Z,57.64
2022-09-30T22:43:06.867Z,57.60
2022-09-30T22:45:36.765Z,57.46
2022-09-30T22:48:04.944Z,57.51
2022-09-30T22:50:36.793Z,57.89
2022-09-30T22:53:04.975Z,56.81
2022-09-30T22:55:33.345Z,57.13
2022-09-30T22:58:01.390Z,56.86
2022-09-30T23:00:29.576Z,57.11
2022-09-30T23:02:59.252Z,56.89
2022-09-30T23:05:27.423Z,57.01
2022-09-30T23:08:10.294Z,56.75
2022-09-30T23:10:39.343Z,56.81
2022-09-30T23:13:09.005Z,56.68
2022-09-30T23:15:36.997Z,56.32
2022-09-30T23:18:08.759Z,56.42
2022-09-30T23:20:36.729Z,56.36
2022-09-30T23:23:04.686Z,56.13
2022-09-30T23:25:32.600Z,56.25
2022-09-30T23:28:00.657Z,56.20
2022-09-30T23:30:29.028Z,56.28
2022-09-30T23:32:58.162Z,56.32
2022-09-30T23:35:27.718Z,56.07
2022-09-30T23:37:55.623Z,56.42
2022-09-30T23:40:23.716Z,56.37
2022-09-30T23:42:51.765Z,56.08
2022-09-30T23:45:19.742Z,55.74
2022-09-30T23:47:49.248Z,55.81
2022-09-30T23:50:17.379Z,56.03
2022-09-30T23:52:46.979Z,55.96
2022-09-30T23:55:15.077Z,55.64
2022-09-30T23:57:47.072Z,55.61
